createdAt,value
2019-03-31T00:01:08.544Z,57.10
2019-03-31T00:03:38.194Z,57.00
2019-03-31T00:06:09.754Z,57.00
2019-03-31T00:08:39.017Z,57.00
2019-03-31T00:11:08.330Z,57.10
2019-03-31T00:13:37.719Z,57.20
2019-03-31T00:16:06.889Z,57.40
2019-03-31T00:18:36.130Z,57.60
2019-03-31T00:21:05.481Z,58.10
2019-03-31T00:23:36.237Z,57.60
2019-03-31T00:26:05.522Z,57.90
2019-03-31T00:28:34.824Z,58.10
2019-03-31T00:31:04.126Z,58.10
2019-03-31T00:33:34.803Z,58.20
2019-03-31T00:36:03.279Z,58.10
2019-03-31T00:38:32.423Z,58.00
2019-03-31T00:41:01.839Z,57.80
2019-03-31T00:43:31.081Z,57.70
2019-03-31T00:46:00.442Z,57.50
2019-03-31T00:48:29.849Z,57.50
2019-03-31T00:50:59.234Z,57.60
2019-03-31T00:53:28.477Z,58.50
2019-03-31T00:55:57.727Z,57.90
2019-03-31T00:58:27.115Z,59.00
2019-03-31T01:01:00.906Z,58.80
2019-03-31T01:03:33.434Z,58.10
2019-03-31T01:06:03.870Z,58.00
2019-03-31T01:08:34.631Z,58.10
2019-03-31T01:11:09.534Z,58.10
2019-03-31T01:13:39.050Z,58.80
2019-03-31T01:16:08.352Z,58.10
2019-03-31T01:18:37.648Z,58.20
2019-03-31T01:21:06.880Z,58.20
2019-03-31T01:23:36.243Z,58.30
2019-03-31T01:26:05.706Z,58.40
2019-03-31T01:28:35.060Z,58.40
2019-03-31T01:31:04.443Z,58.50
2019-03-31T01:33:33.744Z,58.50
2019-03-31T01:36:03.415Z,58.60
2019-03-31T01:38:32.865Z,58.90
2019-03-31T01:41:02.115Z,58.90
2019-03-31T01:43:31.394Z,59.00
2019-03-31T01:46:00.911Z,59.90
2019-03-31T01:48:30.328Z,59.20
2019-03-31T01:50:59.489Z,59.10
2019-03-31T01:53:28.664Z,60.00
2019-03-31T01:55:57.962Z,59.40
2019-03-31T01:58:27.198Z,59.40
2019-03-31T02:01:02.859Z,59.20
2019-03-31T02:03:32.108Z,59.20
2019-03-31T02:06:01.490Z,59.20
2019-03-31T02:08:30.729Z,59.10
2019-03-31T02:11:00.927Z,59.00
2019-03-31T02:13:30.203Z,59.00
2019-03-31T02:15:59.475Z,59.00
2019-03-31T02:18:29.803Z,59.00
2019-03-31T02:20:59.024Z,58.90
2019-03-31T02:23:28.250Z,58.90
2019-03-31T02:25:57.555Z,58.90
2019-03-31T02:28:26.715Z,58.90
2019-03-31T02:30:55.941Z,58.90
2019-03-31T02:33:25.175Z,58.90
2019-03-31T02:35:54.443Z,58.80
2019-03-31T02:38:23.681Z,58.80
2019-03-31T02:40:53.036Z,59.60
2019-03-31T02:43:22.632Z,59.10
2019-03-31T02:45:51.914Z,59.20
2019-03-31T02:48:21.285Z,59.40
2019-03-31T02:50:51.371Z,59.40
2019-03-31T02:53:20.684Z,59.60
2019-03-31T02:55:49.978Z,59.60
2019-03-31T02:58:20.328Z,59.80
2019-03-31T03:00:49.576Z,59.70
2019-03-31T03:03:19.274Z,59.60
2019-03-31T03:05:48.604Z,59.60
2019-03-31T03:08:18.350Z,60.50
2019-03-31T03:10:48.947Z,59.80
2019-03-31T03:13:32.020Z,59.60
2019-03-31T03:16:10.202Z,59.70
2019-03-31T03:18:39.537Z,59.90
2019-03-31T03:21:08.909Z,60.80
2019-03-31T03:23:38.194Z,60.10
2019-03-31T03:26:07.509Z,60.30
2019-03-31T03:28:36.797Z,60.50
2019-03-31T03:31:14.586Z,60.40
2019-03-31T03:33:37.205Z,60.50
2019-03-31T03:36:06.465Z,60.70
2019-03-31T03:38:35.698Z,60.50
2019-03-31T03:41:05.050Z,60.40
2019-03-31T03:43:34.380Z,60.40
2019-03-31T03:46:03.684Z,60.30
2019-03-31T03:48:33.802Z,60.30
2019-03-31T03:51:03.105Z,60.40
2019-03-31T03:53:32.460Z,60.20
2019-03-31T03:56:01.729Z,60.30
2019-03-31T03:58:31.955Z,60.50
2019-03-31T04:01:01.641Z,60.60
2019-03-31T04:03:31.285Z,60.90
2019-03-31T04:06:00.663Z,61.50
2019-03-31T04:08:29.940Z,61.00
2019-03-31T04:11:20.940Z,60.90
2019-03-31T04:13:49.129Z,61.70
2019-03-31T04:16:19.462Z,60.90
2019-03-31T04:18:48.662Z,60.90
2019-03-31T04:21:17.975Z,61.00
2019-03-31T04:23:48.652Z,61.00
2019-03-31T04:26:17.212Z,60.90
2019-03-31T04:28:46.362Z,61.10
2019-03-31T04:31:15.553Z,61.10
2019-03-31T04:33:51.689Z,61.30
2019-03-31T04:36:15.756Z,61.30
2019-03-31T04:38:45.078Z,61.40
2019-03-31T04:41:14.397Z,61.50
2019-03-31T04:43:43.621Z,61.50
2019-03-31T04:46:12.835Z,61.50
2019-03-31T04:48:42.251Z,61.40
2019-03-31T04:51:11.565Z,61.50
2019-03-31T04:53:40.827Z,61.70
2019-03-31T04:56:10.286Z,61.70
2019-03-31T04:58:39.589Z,61.40
2019-03-31T05:01:08.894Z,61.40
2019-03-31T05:03:38.174Z,61.30
2019-03-31T05:06:07.421Z,61.40
2019-03-31T05:08:36.715Z,62.00
2019-03-31T05:11:07.114Z,61.50
2019-03-31T05:13:36.416Z,61.50
2019-03-31T05:16:06.964Z,61.50
2019-03-31T05:18:35.522Z,61.50
2019-03-31T05:21:04.735Z,61.60
2019-03-31T05:23:33.989Z,61.80
2019-03-31T05:26:03.267Z,61.70
2019-03-31T05:28:32.629Z,61.80
2019-03-31T05:31:01.897Z,62.00
2019-03-31T05:33:31.069Z,62.30
2019-03-31T05:36:00.386Z,62.40
2019-03-31T05:38:29.840Z,62.40
2019-03-31T05:40:59.131Z,62.40
2019-03-31T05:43:28.348Z,62.40
2019-03-31T05:45:57.661Z,62.60
2019-03-31T05:48:26.942Z,62.80
2019-03-31T05:50:56.272Z,63.00
2019-03-31T05:53:25.575Z,62.80
2019-03-31T05:55:54.930Z,62.60
2019-03-31T05:58:24.282Z,63.30
2019-03-31T06:00:53.687Z,64.00
2019-03-31T06:03:22.980Z,65.00
2019-03-31T06:05:52.246Z,65.50
2019-03-31T06:08:21.486Z,65.70
2019-03-31T06:10:50.665Z,65.80
2019-03-31T06:13:19.830Z,65.50
2019-03-31T06:15:50.454Z,65.10
2019-03-31T06:18:19.825Z,65.10
2019-03-31T06:20:49.071Z,64.60
2019-03-31T06:23:18.302Z,64.30
2019-03-31T06:25:47.796Z,64.60
2019-03-31T06:28:18.218Z,64.60
2019-03-31T06:30:47.436Z,64.60
2019-03-31T06:33:16.695Z,64.40
2019-03-31T06:35:45.959Z,64.10
2019-03-31T06:38:15.247Z,64.00
2019-03-31T06:40:46.194Z,63.80
2019-03-31T06:43:15.482Z,64.00
2019-03-31T06:45:44.891Z,64.20
2019-03-31T06:48:14.461Z,64.00
2019-03-31T06:50:43.738Z,63.90
2019-03-31T06:53:13.094Z,63.70
2019-03-31T06:55:42.354Z,63.40
2019-03-31T06:58:12.679Z,63.30
2019-03-31T07:00:42.412Z,63.40
2019-03-31T07:03:11.643Z,63.10
2019-03-31T07:05:41.096Z,62.70
2019-03-31T07:08:10.272Z,62.50
2019-03-31T07:10:39.496Z,62.80
2019-03-31T07:13:09.776Z,62.60
2019-03-31T07:15:39.013Z,62.70
2019-03-31T07:18:08.550Z,62.90
2019-03-31T07:20:39.147Z,63.20
2019-03-31T07:23:08.469Z,63.80
2019-03-31T07:25:37.700Z,64.20
2019-03-31T07:28:07.013Z,64.60
2019-03-31T07:30:36.307Z,64.70
2019-03-31T07:33:05.591Z,66.00
2019-03-31T07:35:34.911Z,65.70
2019-03-31T07:38:04.315Z,66.00
2019-03-31T07:40:33.694Z,66.70
2019-03-31T07:43:03.013Z,66.60
2019-03-31T07:45:32.340Z,66.80
2019-03-31T07:48:01.707Z,67.10
2019-03-31T07:50:32.068Z,67.30
2019-03-31T07:53:01.387Z,66.70
2019-03-31T07:55:30.788Z,66.30
2019-03-31T07:57:59.993Z,66.00
2019-03-31T08:00:29.328Z,64.70
2019-03-31T08:03:00.279Z,63.80
2019-03-31T08:05:33.486Z,63.60
2019-03-31T08:08:00.379Z,63.80
2019-03-31T08:10:30.669Z,63.50
2019-03-31T08:12:59.900Z,63.60
2019-03-31T08:15:29.276Z,62.70
2019-03-31T08:17:58.566Z,62.30
2019-03-31T08:20:27.921Z,62.00
2019-03-31T08:22:57.418Z,60.50
2019-03-31T08:25:26.667Z,59.10
2019-03-31T08:27:55.977Z,58.30
2019-03-31T08:30:25.271Z,58.70
2019-03-31T08:32:54.568Z,58.80
2019-03-31T08:35:23.860Z,59.20
2019-03-31T08:37:53.148Z,58.90
2019-03-31T08:40:22.423Z,58.30
2019-03-31T08:42:51.673Z,58.20
2019-03-31T08:45:21.122Z,57.10
2019-03-31T08:47:50.390Z,57.50
2019-03-31T08:50:20.763Z,57.60
2019-03-31T08:52:50.048Z,56.70
2019-03-31T08:55:19.277Z,56.10
2019-03-31T08:57:49.561Z,55.10
2019-03-31T09:00:21.306Z,55.60
2019-03-31T09:02:52.278Z,55.30
2019-03-31T09:05:21.508Z,55.30
2019-03-31T09:07:50.755Z,55.30
2019-03-31T09:10:20.003Z,55.10
2019-03-31T09:12:49.297Z,55.50
2019-03-31T09:15:18.582Z,55.40
2019-03-31T09:17:47.796Z,55.50
2019-03-31T09:20:17.089Z,55.20
2019-03-31T09:22:46.345Z,55.00
2019-03-31T09:25:16.930Z,55.30
2019-03-31T09:27:45.501Z,54.90
2019-03-31T09:30:14.677Z,54.80
2019-03-31T09:32:44.114Z,55.10
2019-03-31T09:35:13.400Z,54.10
2019-03-31T09:37:42.622Z,53.90
2019-03-31T09:40:11.992Z,53.40
2019-03-31T09:42:41.287Z,52.90
2019-03-31T09:45:10.626Z,53.50
2019-03-31T09:47:39.996Z,53.30
2019-03-31T09:50:11.601Z,53.50
2019-03-31T09:52:40.887Z,53.50
2019-03-31T09:55:10.211Z,53.70
2019-03-31T09:57:39.600Z,53.50
2019-03-31T10:00:14.715Z,51.70
2019-03-31T10:02:43.955Z,51.90
2019-03-31T10:05:14.839Z,52.00
2019-03-31T10:07:44.143Z,51.60
2019-03-31T10:10:31.042Z,51.30
2019-03-31T10:13:00.683Z,51.30
2019-03-31T10:15:29.997Z,50.90
2019-03-31T10:17:59.326Z,50.40
2019-03-31T10:20:31.281Z,50.30
2019-03-31T10:22:59.476Z,49.70
2019-03-31T10:25:29.707Z,49.40
2019-03-31T10:27:58.948Z,49.20
2019-03-31T10:30:38.567Z,50.00
2019-03-31T10:33:08.217Z,50.00
2019-03-31T10:35:38.585Z,50.00
2019-03-31T10:38:07.862Z,49.50
2019-03-31T10:40:37.159Z,49.70
2019-03-31T10:43:06.397Z,49.70
2019-03-31T10:45:35.637Z,50.00
2019-03-31T10:48:19.814Z,49.80
2019-03-31T10:50:38.128Z,48.70
2019-03-31T10:53:07.374Z,48.30
2019-03-31T10:55:36.546Z,48.50
2019-03-31T10:58:05.933Z,48.20
2019-03-31T11:00:36.805Z,48.00
2019-03-31T11:03:06.915Z,47.70
2019-03-31T11:05:36.294Z,47.50
2019-03-31T11:08:05.688Z,47.40
2019-03-31T11:10:35.070Z,47.20
2019-03-31T11:13:04.360Z,47.00
2019-03-31T11:15:33.686Z,46.50
2019-03-31T11:18:02.974Z,47.40
2019-03-31T11:20:32.226Z,48.50
2019-03-31T11:23:22.652Z,48.10
2019-03-31T11:25:53.897Z,46.60
2019-03-31T11:28:23.159Z,45.60
2019-03-31T11:30:52.484Z,46.00
2019-03-31T11:33:21.730Z,45.10
2019-03-31T11:35:50.996Z,44.50
2019-03-31T11:38:20.248Z,44.50
2019-03-31T11:40:50.855Z,45.50
2019-03-31T11:43:20.110Z,45.60
2019-03-31T11:45:49.421Z,45.70
2019-03-31T11:48:18.743Z,44.80
2019-03-31T11:50:47.989Z,45.00
2019-03-31T11:53:17.257Z,44.50
2019-03-31T11:55:46.530Z,43.60
2019-03-31T11:58:15.788Z,42.40
2019-03-31T12:00:49.644Z,41.90
2019-03-31T12:03:19.950Z,42.10
2019-03-31T12:05:49.166Z,41.70
2019-03-31T12:08:18.439Z,42.00
2019-03-31T12:10:47.698Z,43.20
2019-03-31T12:13:16.873Z,43.00
2019-03-31T12:15:46.055Z,42.80
2019-03-31T12:18:15.449Z,42.40
2019-03-31T12:20:44.890Z,42.40
2019-03-31T12:23:14.270Z,42.00
2019-03-31T12:25:43.589Z,41.90
2019-03-31T12:28:14.659Z,41.50
2019-03-31T12:30:43.959Z,40.10
2019-03-31T12:33:13.245Z,40.20
2019-03-31T12:35:42.483Z,41.80
2019-03-31T12:38:11.648Z,41.60
2019-03-31T12:40:40.832Z,41.30
2019-03-31T12:43:11.258Z,41.40
2019-03-31T12:45:43.193Z,40.00
2019-03-31T12:48:11.454Z,39.40
2019-03-31T12:50:40.830Z,39.60
2019-03-31T12:53:10.193Z,39.10
2019-03-31T12:55:39.465Z,38.90
2019-03-31T12:58:08.626Z,38.60
2019-03-31T13:00:37.875Z,40.50
2019-03-31T13:03:07.111Z,39.30
2019-03-31T13:05:36.413Z,40.40
2019-03-31T13:08:05.681Z,40.10
2019-03-31T13:10:34.835Z,38.40
2019-03-31T13:13:04.140Z,38.90
2019-03-31T13:15:33.503Z,39.40
2019-03-31T13:18:02.805Z,40.20
2019-03-31T13:20:32.735Z,40.00
2019-03-31T13:23:02.011Z,39.50
2019-03-31T13:25:31.324Z,40.40
2019-03-31T13:28:01.628Z,39.50
2019-03-31T13:30:31.047Z,38.80
2019-03-31T13:33:00.290Z,38.10
2019-03-31T13:35:29.445Z,39.10
2019-03-31T13:38:10.254Z,38.00
2019-03-31T13:40:29.814Z,37.20
2019-03-31T13:43:00.166Z,37.50
2019-03-31T13:45:29.468Z,36.70
2019-03-31T13:47:58.951Z,37.60
2019-03-31T13:50:28.234Z,37.80
2019-03-31T13:52:58.521Z,37.10
2019-03-31T13:55:29.571Z,36.60
2019-03-31T13:57:59.590Z,36.60
2019-03-31T14:00:38.205Z,36.60
2019-03-31T14:03:07.580Z,36.90
2019-03-31T14:05:36.823Z,36.40
2019-03-31T14:08:06.083Z,35.30
2019-03-31T14:10:35.404Z,33.90
2019-03-31T14:13:05.647Z,33.70
2019-03-31T14:15:34.810Z,33.80
2019-03-31T14:18:04.209Z,32.80
2019-03-31T14:20:33.809Z,33.20
2019-03-31T14:23:02.902Z,31.70
2019-03-31T14:25:32.213Z,31.80
2019-03-31T14:28:01.451Z,31.30
2019-03-31T14:30:30.675Z,31.20
2019-03-31T14:32:59.919Z,31.70
2019-03-31T14:35:29.083Z,32.70
2019-03-31T14:37:58.298Z,31.40
2019-03-31T14:40:27.462Z,31.60
2019-03-31T14:42:56.634Z,30.50
2019-03-31T14:45:30.459Z,30.10
2019-03-31T14:48:01.803Z,30.10
2019-03-31T14:50:33.400Z,29.80
2019-03-31T14:53:02.584Z,29.70
2019-03-31T14:55:31.754Z,29.70
2019-03-31T14:58:00.925Z,29.90
2019-03-31T15:00:30.185Z,30.70
2019-03-31T15:02:59.431Z,32.10
2019-03-31T15:05:29.754Z,32.10
2019-03-31T15:07:59.132Z,31.90
2019-03-31T15:10:29.491Z,32.20
2019-03-31T15:12:59.711Z,32.20
2019-03-31T15:15:28.886Z,32.40
2019-03-31T15:17:58.150Z,31.60
2019-03-31T15:20:27.368Z,31.80
2019-03-31T15:22:56.612Z,31.80
2019-03-31T15:25:25.920Z,31.30
2019-03-31T15:27:55.220Z,30.40
2019-03-31T15:30:24.465Z,30.50
2019-03-31T15:32:55.092Z,30.80
2019-03-31T15:35:24.374Z,30.00
2019-03-31T15:37:53.690Z,29.90
2019-03-31T15:40:22.905Z,30.20
2019-03-31T15:42:53.529Z,30.60
2019-03-31T15:45:23.769Z,30.90
2019-03-31T15:47:53.122Z,30.50
2019-03-31T15:50:22.382Z,31.00
2019-03-31T15:52:51.670Z,30.80
2019-03-31T15:55:21.191Z,30.00
2019-03-31T15:57:50.424Z,30.40
2019-03-31T16:00:19.723Z,30.90
2019-03-31T16:02:49.029Z,31.40
2019-03-31T16:05:18.254Z,31.50
2019-03-31T16:07:47.947Z,32.30
2019-03-31T16:10:17.176Z,31.90
2019-03-31T16:12:46.440Z,32.30
2019-03-31T16:15:16.724Z,32.70
2019-03-31T16:17:46.024Z,33.40
2019-03-31T16:20:15.316Z,34.10
2019-03-31T16:22:44.616Z,34.50
2019-03-31T16:25:21.365Z,34.90
2019-03-31T16:27:50.600Z,34.70
2019-03-31T16:30:19.914Z,34.50
2019-03-31T16:32:49.210Z,34.80
2019-03-31T16:35:19.019Z,35.00
2019-03-31T16:37:48.388Z,35.60
2019-03-31T16:40:17.614Z,36.40
2019-03-31T16:42:46.898Z,36.50
2019-03-31T16:45:16.125Z,36.80
2019-03-31T16:47:45.393Z,37.40
2019-03-31T16:50:14.798Z,37.20
2019-03-31T16:52:44.100Z,37.30
2019-03-31T16:55:13.412Z,37.10
2019-03-31T16:57:42.717Z,36.90
2019-03-31T17:00:12.062Z,36.90
2019-03-31T17:02:41.453Z,37.00
2019-03-31T17:05:21.578Z,37.80
2019-03-31T17:07:41.686Z,37.30
2019-03-31T17:10:10.850Z,37.40
2019-03-31T17:12:40.074Z,37.60
2019-03-31T17:15:11.151Z,37.60
2019-03-31T17:17:40.398Z,37.50
2019-03-31T17:20:09.651Z,37.10
2019-03-31T17:22:38.845Z,37.00
2019-03-31T17:25:08.103Z,36.70
2019-03-31T17:27:37.323Z,37.00
2019-03-31T17:30:06.730Z,37.20
2019-03-31T17:32:35.888Z,37.10
2019-03-31T17:35:05.089Z,37.00
2019-03-31T17:37:34.511Z,36.90
2019-03-31T17:40:07.127Z,37.00
2019-03-31T17:42:36.581Z,37.00
2019-03-31T17:45:07.419Z,36.90
2019-03-31T17:47:36.999Z,36.90
2019-03-31T17:50:06.257Z,37.70
2019-03-31T17:52:35.593Z,37.00
2019-03-31T17:55:05.594Z,37.20
2019-03-31T17:57:34.945Z,37.40
2019-03-31T18:00:07.443Z,37.50
2019-03-31T18:02:36.791Z,38.70
2019-03-31T18:05:07.310Z,38.60
2019-03-31T18:07:35.866Z,38.90
2019-03-31T18:10:19.558Z,38.90
2019-03-31T18:12:37.539Z,39.10
2019-03-31T18:15:06.830Z,38.80
2019-03-31T18:17:36.053Z,38.50
2019-03-31T18:20:08.049Z,38.50
2019-03-31T18:22:37.286Z,38.40
2019-03-31T18:25:10.606Z,38.40
2019-03-31T18:27:39.763Z,38.80
2019-03-31T18:30:09.055Z,39.60
2019-03-31T18:32:38.366Z,38.90
2019-03-31T18:35:07.655Z,38.80
2019-03-31T18:37:37.979Z,38.60
2019-03-31T18:40:08.910Z,39.00
2019-03-31T18:42:38.600Z,39.70
2019-03-31T18:45:08.250Z,40.00
2019-03-31T18:47:37.552Z,39.80
2019-03-31T18:50:06.792Z,39.40
2019-03-31T18:52:36.164Z,39.10
2019-03-31T18:55:16.380Z,38.90
2019-03-31T18:57:47.322Z,38.60
2019-03-31T19:00:24.957Z,38.30
2019-03-31T19:03:04.826Z,38.20
2019-03-31T19:05:35.763Z,38.70
2019-03-31T19:08:22.764Z,39.40
2019-03-31T19:11:14.798Z,39.80
2019-03-31T19:13:55.146Z,39.80
2019-03-31T19:16:21.915Z,39.90
2019-03-31T19:18:55.920Z,40.50
2019-03-31T19:21:26.825Z,40.90
2019-03-31T19:23:57.686Z,41.40
2019-03-31T19:26:48.734Z,41.50
2019-03-31T19:29:22.201Z,41.20
2019-03-31T19:32:10.451Z,41.10
2019-03-31T19:34:41.409Z,41.50
2019-03-31T19:37:28.368Z,41.30
2019-03-31T19:40:08.733Z,41.90
2019-03-31T19:42:42.409Z,42.20
2019-03-31T19:45:13.377Z,42.40
2019-03-31T19:47:45.329Z,42.50
2019-03-31T19:50:32.447Z,42.60
2019-03-31T19:53:03.385Z,42.70
2019-03-31T19:55:34.388Z,43.00
2019-03-31T19:58:11.170Z,43.10
2019-03-31T20:00:42.058Z,43.10
2019-03-31T20:03:13.972Z,43.20
2019-03-31T20:06:01.732Z,43.20
2019-03-31T20:08:38.528Z,43.40
2019-03-31T20:11:15.496Z,43.70
2019-03-31T20:14:02.887Z,43.80
2019-03-31T20:16:42.722Z,44.10
2019-03-31T20:19:29.633Z,44.40
2019-03-31T20:22:03.490Z,44.50
2019-03-31T20:24:37.246Z,44.60
2019-03-31T20:27:08.312Z,44.80
2019-03-31T20:29:39.429Z,44.80
2019-03-31T20:32:16.323Z,44.90
2019-03-31T20:34:50.864Z,45.10
2019-03-31T20:37:27.728Z,45.30
2019-03-31T20:40:07.715Z,45.40
2019-03-31T20:42:41.387Z,45.60
2019-03-31T20:45:10.754Z,45.80
2019-03-31T20:47:40.235Z,46.00
2019-03-31T20:50:09.466Z,46.20
2019-03-31T20:52:38.657Z,46.30
2019-03-31T20:55:16.134Z,46.40
2019-03-31T20:57:38.929Z,46.60
2019-03-31T21:00:08.294Z,46.90
2019-03-31T21:02:37.846Z,47.20
2019-03-31T21:05:07.158Z,47.30
2019-03-31T21:07:37.299Z,47.30
2019-03-31T21:10:11.003Z,47.50
2019-03-31T21:12:40.170Z,47.60
2019-03-31T21:15:09.425Z,47.70
2019-03-31T21:17:38.636Z,47.70
2019-03-31T21:20:07.862Z,47.70
2019-03-31T21:22:37.061Z,47.80
2019-03-31T21:25:06.366Z,48.00
2019-03-31T21:27:35.590Z,48.00
2019-03-31T21:30:06.418Z,48.10
2019-03-31T21:32:35.720Z,48.30
2019-03-31T21:35:06.228Z,48.30
2019-03-31T21:37:34.833Z,48.20
2019-03-31T21:40:06.564Z,48.40
2019-03-31T21:42:35.829Z,48.30
2019-03-31T21:45:05.999Z,48.20
2019-03-31T21:47:35.937Z,48.30
2019-03-31T21:50:06.590Z,49.00
2019-03-31T21:52:35.897Z,48.40
2019-03-31T21:55:06.659Z,48.60
2019-03-31T21:57:35.931Z,48.80
2019-03-31T22:00:08.136Z,48.90
2019-03-31T22:02:39.107Z,49.00
2019-03-31T22:05:10.887Z,49.90
2019-03-31T22:07:40.138Z,49.40
2019-03-31T22:10:09.452Z,49.50
2019-03-31T22:12:38.696Z,49.70
2019-03-31T22:15:07.925Z,49.60
2019-03-31T22:17:37.201Z,49.60
2019-03-31T22:20:07.555Z,49.70
2019-03-31T22:22:36.846Z,49.80
2019-03-31T22:25:06.584Z,50.00
2019-03-31T22:27:35.898Z,50.00
2019-03-31T22:30:06.623Z,50.10
2019-03-31T22:32:35.996Z,50.20
2019-03-31T22:35:06.436Z,50.30
2019-03-31T22:37:35.838Z,50.60
2019-03-31T22:40:05.992Z,50.40
2019-03-31T22:42:37.404Z,50.50
2019-03-31T22:45:06.725Z,50.60
2019-03-31T22:47:36.126Z,50.70
2019-03-31T22:50:05.562Z,50.10
2019-03-31T22:52:34.935Z,50.80
2019-03-31T22:55:05.921Z,50.90
2019-03-31T22:57:35.167Z,50.80
2019-03-31T23:00:05.334Z,50.70
2019-03-31T23:02:36.449Z,50.60
2019-03-31T23:05:05.778Z,50.60
2019-03-31T23:07:35.078Z,50.90
2019-03-31T23:10:06.330Z,50.80
2019-03-31T23:12:35.618Z,50.90
2019-03-31T23:15:06.419Z,50.90
2019-03-31T23:17:35.739Z,51.10
2019-03-31T23:20:05.436Z,51.20
2019-03-31T23:22:34.636Z,51.30
2019-03-31T23:25:05.626Z,51.20
2019-03-31T23:27:34.846Z,51.30
2019-03-31T23:30:07.908Z,51.40
2019-03-31T23:32:37.218Z,51.40
2019-03-31T23:35:07.305Z,51.50
2019-03-31T23:37:37.622Z,51.80
2019-03-31T23:40:06.929Z,52.00
2019-03-31T23:42:36.330Z,52.00
2019-03-31T23:45:06.498Z,52.10
2019-03-31T23:47:35.793Z,52.20
2019-03-31T23:50:05.790Z,52.40
2019-03-31T23:52:36.147Z,52.20
2019-03-31T23:55:05.817Z,52.30
2019-03-31T23:57:43.978Z,52.10
